sensor_id;sensor_type;location;lat;lon;timestamp;pressure;altitude;pressure_sealevel;temperature;humidity
10921;BME280;5513;50.580;8.818;2022-12-18T00:00:26;100433.94;;;-9.17;100.00
10921;BME280;5513;50.580;8.818;2022-12-18T00:02:55;100435.78;;;-9.14;100.00
10921;BME280;5513;50.580;8.818;2022-12-18T00:05:27;100427.69;;;-9.25;100.00
10921;BME280;5513;50.580;8.818;2022-12-18T00:08:00;100435.59;;;-9.19;100.00
10921;BME280;5513;50.580;8.818;2022-12-18T00:10:35;100436.19;;;-9.02;100.00
10921;BME280;5513;50.580;8.818;2022-12-18T00:13:03;100431.16;;;-8.99;100.00
10921;BME280;5513;50.580;8.818;2022-12-18T00:15:38;100430.97;;;-9.05;100.00
10921;BME280;5513;50.580;8.818;2022-12-18T00:18:09;100428.03;;;-9.16;100.00
10921;BME280;5513;50.580;8.818;2022-12-18T00:20:46;100425.47;;;-9.16;100.00
10921;BME280;5513;50.580;8.818;2022-12-18T00:23:14;100422.31;;;-9.07;100.00
10921;BME280;5513;50.580;8.818;2022-12-18T00:25:43;100417.91;;;-9.11;100.00
10921;BME280;5513;50.580;8.818;2022-12-18T00:28:11;100420.38;;;-9.14;100.00
10921;BME280;5513;50.580;8.818;2022-12-18T00:30:40;100428.41;;;-9.05;100.00
10921;BME280;5513;50.580;8.818;2022-12-18T00:33:08;100428.41;;;-9.05;100.00
10921;BME280;5513;50.580;8.818;2022-12-18T00:35:36;100433.66;;;-9.01;100.00
10921;BME280;5513;50.580;8.818;2022-12-18T00:38:06;100437.06;;;-9.02;100.00
10921;BME280;5513;50.580;8.818;2022-12-18T00:40:35;100432.28;;;-9.16;100.00
10921;BME280;5513;50.580;8.818;2022-12-18T00:43:04;100423.53;;;-9.21;100.00
10921;BME280;5513;50.580;8.818;2022-12-18T00:45:32;100425.56;;;-9.13;100.00
10921;BME280;5513;50.580;8.818;2022-12-18T00:48:02;100431.00;;;-9.28;100.00
10921;BME280;5513;50.580;8.818;2022-12-18T00:50:30;100423.91;;;-9.11;100.00
10921;BME280;5513;50.580;8.818;2022-12-18T00:53:00;100413.53;;;-9.14;100.00
10921;BME280;5513;50.580;8.818;2022-12-18T00:55:30;100419.97;;;-9.01;100.00
10921;BME280;5513;50.580;8.818;2022-12-18T00:57:58;100417.66;;;-8.93;100.00
10921;BME280;5513;50.580;8.818;2022-12-18T01:00:27;100411.25;;;-9.06;100.00
10921;BME280;5513;50.580;8.818;2022-12-18T01:02:56;100418.09;;;-9.07;100.00
10921;BME280;5513;50.580;8.818;2022-12-18T01:05:25;100420.84;;;-9.01;100.00
10921;BME280;5513;50.580;8.818;2022-12-18T01:07:54;100425.66;;;-9.10;100.00
10921;BME280;5513;50.580;8.818;2022-12-18T01:10:24;100430.78;;;-9.10;100.00
10921;BME280;5513;50.580;8.818;2022-12-18T01:12:55;100435.09;;;-9.33;100.00
10921;BME280;5513;50.580;8.818;2022-12-18T01:15:24;100438.97;;;-9.44;100.00
10921;BME280;5513;50.580;8.818;2022-12-18T01:17:53;100434.25;;;-9.33;100.00
10921;BME280;5513;50.580;8.818;2022-12-18T01:20:22;100435.22;;;-9.30;100.00
10921;BME280;5513;50.580;8.818;2022-12-18T01:22:50;100432.97;;;-9.20;100.00
10921;BME280;5513;50.580;8.818;2022-12-18T01:25:19;100442.09;;;-9.29;100.00
10921;BME280;5513;50.580;8.818;2022-12-18T01:27:48;100441.97;;;-9.32;100.00
10921;BME280;5513;50.580;8.818;2022-12-18T01:30:21;100435.53;;;-9.20;100.00
10921;BME280;5513;50.580;8.818;2022-12-18T01:32:49;100435.06;;;-9.34;100.00
10921;BME280;5513;50.580;8.818;2022-12-18T01:35:19;100431.94;;;-9.26;100.00
10921;BME280;5513;50.580;8.818;2022-12-18T01:37:48;100435.50;;;-9.22;100.00
10921;BME280;5513;50.580;8.818;2022-12-18T01:40:16;100433.16;;;-9.16;100.00
10921;BME280;5513;50.580;8.818;2022-12-18T01:42:50;100440.03;;;-9.15;100.00
10921;BME280;5513;50.580;8.818;2022-12-18T01:45:26;100433.28;;;-9.11;100.00
10921;BME280;5513;50.580;8.818;2022-12-18T01:47:56;100428.66;;;-9.21;100.00
10921;BME280;5513;50.580;8.818;2022-12-18T01:50:31;100436.19;;;-9.02;100.00
10921;BME280;5513;50.580;8.818;2022-12-18T01:53:07;100436.19;;;-9.02;100.00
10921;BME280;5513;50.580;8.818;2022-12-18T01:55:43;100432.19;;;-9.18;100.00
10921;BME280;5513;50.580;8.818;2022-12-18T01:58:21;100424.59;;;-9.16;100.00
10921;BME280;5513;50.580;8.818;2022-12-18T02:00:54;100423.13;;;-9.08;100.00
10921;BME280;5513;50.580;8.818;2022-12-18T02:03:23;100424.81;;;-9.09;100.00
10921;BME280;5513;50.580;8.818;2022-12-18T02:06:00;100417.63;;;-9.19;100.00
10921;BME280;5513;50.580;8.818;2022-12-18T02:08:35;100409.41;;;-9.34;100.00
10921;BME280;5513;50.580;8.818;2022-12-18T02:11:10;100416.72;;;-9.21;100.00
10921;BME280;5513;50.580;8.818;2022-12-18T02:13:46;100415.78;;;-9.23;100.00
10921;BME280;5513;50.580;8.818;2022-12-18T02:16:25;100413.00;;;-9.29;100.00
10921;BME280;5513;50.580;8.818;2022-12-18T02:19:44;100417.69;;;-9.17;100.00
10921;BME280;5513;50.580;8.818;2022-12-18T02:22:29;100413.31;;;-9.20;100.00
10921;BME280;5513;50.580;8.818;2022-12-18T02:25:36;100417.84;;;-9.37;100.00
10921;BME280;5513;50.580;8.818;2022-12-18T02:28:19;100431.78;;;-9.30;100.00
10921;BME280;5513;50.580;8.818;2022-12-18T02:30:50;100426.09;;;-9.45;100.00
10921;BME280;5513;50.580;8.818;2022-12-18T02:33:21;100431.63;;;-9.35;100.00
10921;BME280;5513;50.580;8.818;2022-12-18T02:35:52;100437.28;;;-9.43;100.00
10921;BME280;5513;50.580;8.818;2022-12-18T02:38:23;100431.28;;;-9.44;100.00
10921;BME280;5513;50.580;8.818;2022-12-18T02:40:53;100434.00;;;-9.39;100.00
10921;BME280;5513;50.580;8.818;2022-12-18T02:43:25;100423.06;;;-9.58;100.00
10921;BME280;5513;50.580;8.818;2022-12-18T02:45:55;100421.13;;;-9.65;100.00
10921;BME280;5513;50.580;8.818;2022-12-18T02:48:29;100426.41;;;-9.60;100.00
10921;BME280;5513;50.580;8.818;2022-12-18T02:51:10;100423.00;;;-9.83;100.00
10921;BME280;5513;50.580;8.818;2022-12-18T02:53:48;100430.84;;;-9.78;100.00
10921;BME280;5513;50.580;8.818;2022-12-18T02:56:22;100414.84;;;-9.73;100.00
10921;BME280;5513;50.580;8.818;2022-12-18T02:59:00;100419.66;;;-9.81;100.00
10921;BME280;5513;50.580;8.818;2022-12-18T03:01:35;100420.34;;;-9.85;100.00
10921;BME280;5513;50.580;8.818;2022-12-18T03:04:10;100426.59;;;-9.78;100.00
10921;BME280;5513;50.580;8.818;2022-12-18T03:06:49;100412.09;;;-9.77;100.00
10921;BME280;5513;50.580;8.818;2022-12-18T03:09:22;100420.16;;;-9.67;100.00
10921;BME280;5513;50.580;8.818;2022-12-18T03:11:56;100426.69;;;-9.75;100.00
10921;BME280;5513;50.580;8.818;2022-12-18T03:15:03;100415.56;;;-9.75;100.00
10921;BME280;5513;50.580;8.818;2022-12-18T03:17:34;100416.53;;;-9.73;100.00
10921;BME280;5513;50.580;8.818;2022-12-18T03:20:07;100427.13;;;-9.87;100.00
10921;BME280;5513;50.580;8.818;2022-12-18T03:22:38;100426.53;;;-9.79;100.00
10921;BME280;5513;50.580;8.818;2022-12-18T03:25:11;100427.34;;;-9.81;100.00
10921;BME280;5513;50.580;8.818;2022-12-18T03:27:44;100423.81;;;-9.84;100.00
10921;BME280;5513;50.580;8.818;2022-12-18T03:30:17;100414.34;;;-9.85;100.00
10921;BME280;5513;50.580;8.818;2022-12-18T03:32:53;100410.91;;;-9.86;100.00
10921;BME280;5513;50.580;8.818;2022-12-18T03:35:29;100409.53;;;-9.77;100.00
10921;BME280;5513;50.580;8.818;2022-12-18T03:38:01;100405.59;;;-9.92;100.00
10921;BME280;5513;50.580;8.818;2022-12-18T03:40:39;100401.84;;;-9.77;100.00
10921;BME280;5513;50.580;8.818;2022-12-18T03:43:16;100408.66;;;-9.78;100.00
10921;BME280;5513;50.580;8.818;2022-12-18T03:45:52;100411.78;;;-9.85;100.00
10921;BME280;5513;50.580;8.818;2022-12-18T03:48:27;100416.03;;;-9.86;100.00
10921;BME280;5513;50.580;8.818;2022-12-18T03:51:01;100406.75;;;-9.84;100.00
10921;BME280;5513;50.580;8.818;2022-12-18T03:53:39;100415.56;;;-9.75;100.00
10921;BME280;5513;50.580;8.818;2022-12-18T03:56:11;100406.03;;;-9.79;100.00
10921;BME280;5513;50.580;8.818;2022-12-18T03:58:42;100400.34;;;-9.72;100.00
10921;BME280;5513;50.580;8.818;2022-12-18T04:01:16;100409.88;;;-9.68;100.00
10921;BME280;5513;50.580;8.818;2022-12-18T04:03:48;100397.22;;;-9.64;100.00
10921;BME280;5513;50.580;8.818;2022-12-18T04:06:17;100402.50;;;-9.59;100.00
10921;BME280;5513;50.580;8.818;2022-12-18T04:08:46;100406.78;;;-9.60;100.00
10921;BME280;5513;50.580;8.818;2022-12-18T04:11:15;100410.31;;;-9.56;100.00
10921;BME280;5513;50.580;8.818;2022-12-18T04:13:46;100408.75;;;-9.53;100.00
10921;BME280;5513;50.580;8.818;2022-12-18T04:16:17;100405.31;;;-9.53;100.00
10921;BME280;5513;50.580;8.818;2022-12-18T04:18:45;100409.63;;;-9.52;100.00
10921;BME280;5513;50.580;8.818;2022-12-18T04:21:14;100409.56;;;-9.54;100.00
10921;BME280;5513;50.580;8.818;2022-12-18T04:23:43;100402.69;;;-9.55;100.00
10921;BME280;5513;50.580;8.818;2022-12-18T04:26:11;100408.31;;;-9.65;100.00
10921;BME280;5513;50.580;8.818;2022-12-18T04:28:40;100409.44;;;-9.57;100.00
10921;BME280;5513;50.580;8.818;2022-12-18T04:31:10;100406.72;;;-9.61;100.00
10921;BME280;5513;50.580;8.818;2022-12-18T04:33:45;100394.78;;;-9.61;100.00
10921;BME280;5513;50.580;8.818;2022-12-18T04:36:15;100396.63;;;-9.57;100.00
10921;BME280;5513;50.580;8.818;2022-12-18T04:38:45;100403.72;;;-9.49;100.00
10921;BME280;5513;50.580;8.818;2022-12-18T04:41:15;100411.31;;;-9.53;100.00
10921;BME280;5513;50.580;8.818;2022-12-18T04:43:44;100400.63;;;-9.65;100.00
10921;BME280;5513;50.580;8.818;2022-12-18T04:46:12;100404.63;;;-9.71;100.00
10921;BME280;5513;50.580;8.818;2022-12-18T04:48:45;100411.59;;;-9.67;100.00
10921;BME280;5513;50.580;8.818;2022-12-18T04:51:14;100404.19;;;-9.84;100.00
10921;BME280;5513;50.580;8.818;2022-12-18T04:53:42;100405.59;;;-9.92;100.00
10921;BME280;5513;50.580;8.818;2022-12-18T04:56:12;100403.84;;;-9.93;100.00
10921;BME280;5513;50.580;8.818;2022-12-18T04:58:43;100404.00;;;-9.88;100.00
10921;BME280;5513;50.580;8.818;2022-12-18T05:01:13;100407.63;;;-9.83;100.00
10921;BME280;5513;50.580;8.818;2022-12-18T05:03:44;100416.88;;;-9.87;100.00
10921;BME280;5513;50.580;8.818;2022-12-18T05:06:13;100411.09;;;-9.81;100.00
10921;BME280;5513;50.580;8.818;2022-12-18T05:08:41;100415.84;;;-9.92;100.00
10921;BME280;5513;50.580;8.818;2022-12-18T05:11:11;100416.13;;;-9.84;100.00
10921;BME280;5513;50.580;8.818;2022-12-18T05:13:42;100420.75;;;-9.96;100.00
10921;BME280;5513;50.580;8.818;2022-12-18T05:16:13;100421.16;;;-9.86;100.00
10921;BME280;5513;50.580;8.818;2022-12-18T05:18:42;100423.47;;;-9.93;100.00
10921;BME280;5513;50.580;8.818;2022-12-18T05:21:11;100429.56;;;-9.90;100.00
10921;BME280;5513;50.580;8.818;2022-12-18T05:23:40;100426.50;;;-10.03;100.00
10921;BME280;5513;50.580;8.818;2022-12-18T05:26:17;100431.72;;;-10.00;100.00
10921;BME280;5513;50.580;8.818;2022-12-18T05:28:46;100428.44;;;-9.96;100.00
10921;BME280;5513;50.580;8.818;2022-12-18T05:31:14;100425.47;;;-9.85;100.00
10921;BME280;5513;50.580;8.818;2022-12-18T05:33:43;100427.88;;;-9.89;100.00
10921;BME280;5513;50.580;8.818;2022-12-18T05:36:16;100416.56;;;-9.94;100.00
10921;BME280;5513;50.580;8.818;2022-12-18T05:38:45;100419.38;;;-10.11;100.00
10921;BME280;5513;50.580;8.818;2022-12-18T05:41:13;100428.03;;;-10.07;100.00
10921;BME280;5513;50.580;8.818;2022-12-18T05:43:42;100421.28;;;-10.05;100.00
10921;BME280;5513;50.580;8.818;2022-12-18T05:46:14;100437.38;;;-10.09;100.00
10921;BME280;5513;50.580;8.818;2022-12-18T05:48:44;100428.81;;;-10.10;100.00
10921;BME280;5513;50.580;8.818;2022-12-18T05:51:18;100422.50;;;-10.18;100.00
10921;BME280;5513;50.580;8.818;2022-12-18T05:53:51;100426.75;;;-10.18;100.00
10921;BME280;5513;50.580;8.818;2022-12-18T05:56:22;100422.44;;;-10.19;100.00
10921;BME280;5513;50.580;8.818;2022-12-18T05:58:52;100427.94;;;-10.10;100.00
10921;BME280;5513;50.580;8.818;2022-12-18T06:01:23;100427.88;;;-10.12;100.00
10921;BME280;5513;50.580;8.818;2022-12-18T06:03:51;100431.78;;;-10.21;100.00
10921;BME280;5513;50.580;8.818;2022-12-18T06:06:24;100423.09;;;-10.25;100.00
10921;BME280;5513;50.580;8.818;2022-12-18T06:08:53;100427.25;;;-10.28;100.00
10921;BME280;5513;50.580;8.818;2022-12-18T06:11:23;100421.63;;;-10.18;100.00
10921;BME280;5513;50.580;8.818;2022-12-18T06:13:54;100423.38;;;-10.17;100.00
10921;BME280;5513;50.580;8.818;2022-12-18T06:16:26;100423.91;;;-10.26;100.00
10921;BME280;5513;50.580;8.818;2022-12-18T06:18:56;100420.31;;;-10.31;100.00
10921;BME280;5513;50.580;8.818;2022-12-18T06:21:27;100427.81;;;-10.13;100.00
10921;BME280;5513;50.580;8.818;2022-12-18T06:23:59;100428.50;;;-10.17;100.00
10921;BME280;5513;50.580;8.818;2022-12-18T06:26:28;100427.81;;;-10.13;100.00
10921;BME280;5513;50.580;8.818;2022-12-18T06:28:56;100431.38;;;-10.10;100.00
10921;BME280;5513;50.580;8.818;2022-12-18T06:31:25;100424.44;;;-10.12;100.00
10921;BME280;5513;50.580;8.818;2022-12-18T06:33:54;100431.47;;;-10.06;100.00
10921;BME280;5513;50.580;8.818;2022-12-18T06:36:23;100426.28;;;-10.08;100.00
10921;BME280;5513;50.580;8.818;2022-12-18T06:38:53;100435.97;;;-10.01;100.00
10921;BME280;5513;50.580;8.818;2022-12-18T06:41:24;100440.97;;;-10.04;100.00
10921;BME280;5513;50.580;8.818;2022-12-18T06:43:53;100436.97;;;-9.97;100.00
10921;BME280;5513;50.580;8.818;2022-12-18T06:46:26;100435.25;;;-9.97;100.00
10921;BME280;5513;50.580;8.818;2022-12-18T06:48:54;100430.19;;;-9.95;100.00
10921;BME280;5513;50.580;8.818;2022-12-18T06:51:24;100435.31;;;-9.95;100.00
10921;BME280;5513;50.580;8.818;2022-12-18T06:53:54;100429.28;;;-9.97;100.00
10921;BME280;5513;50.580;8.818;2022-12-18T06:56:23;100433.47;;;-9.99;100.00
10921;BME280;5513;50.580;8.818;2022-12-18T06:58:52;100445.91;;;-10.08;100.00
10921;BME280;5513;50.580;8.818;2022-12-18T07:01:21;100446.16;;;-10.02;100.00
10921;BME280;5513;50.580;8.818;2022-12-18T07:03:52;100461.03;;;-9.94;100.00
10921;BME280;5513;50.580;8.818;2022-12-18T07:06:24;100461.53;;;-10.02;100.00
10921;BME280;5513;50.580;8.818;2022-12-18T07:08:54;100465.97;;;-9.98;100.00
10921;BME280;5513;50.580;8.818;2022-12-18T07:11:24;100466.94;;;-9.95;100.00
10921;BME280;5513;50.580;8.818;2022-12-18T07:13:54;100476.09;;;-10.01;100.00
10921;BME280;5513;50.580;8.818;2022-12-18T07:16:23;100479.63;;;-9.98;100.00
10921;BME280;5513;50.580;8.818;2022-12-18T07:18:52;100463.44;;;-9.97;100.00
10921;BME280;5513;50.580;8.818;2022-12-18T07:21:22;100464.84;;;-10.05;100.00
10921;BME280;5513;50.580;8.818;2022-12-18T07:23:51;100462.28;;;-10.05;100.00
10921;BME280;5513;50.580;8.818;2022-12-18T07:26:25;100463.69;;;-10.13;100.00
10921;BME280;5513;50.580;8.818;2022-12-18T07:28:55;100459.03;;;-10.01;100.00
10921;BME280;5513;50.580;8.818;2022-12-18T07:31:24;100463.28;;;-10.01;100.00
10921;BME280;5513;50.580;8.818;2022-12-18T07:33:53;100469.28;;;-10.01;100.00
10921;BME280;5513;50.580;8.818;2022-12-18T07:36:23;100469.34;;;-9.99;100.00
10921;BME280;5513;50.580;8.818;2022-12-18T07:38:52;100472.81;;;-9.97;100.00
10921;BME280;5513;50.580;8.818;2022-12-18T07:41:26;100469.44;;;-9.96;100.00
10921;BME280;5513;50.580;8.818;2022-12-18T07:43:55;100477.19;;;-9.95;100.00
10921;BME280;5513;50.580;8.818;2022-12-18T07:46:25;100468.25;;;-9.84;100.00
10921;BME280;5513;50.580;8.818;2022-12-18T07:48:54;100467.50;;;-9.81;100.00
10921;BME280;5513;50.580;8.818;2022-12-18T07:51:22;100464.16;;;-9.78;100.00
10921;BME280;5513;50.580;8.818;2022-12-18T07:53:50;100469.84;;;-9.86;100.00
10921;BME280;5513;50.580;8.818;2022-12-18T07:56:20;100460.91;;;-9.74;100.00
10921;BME280;5513;50.580;8.818;2022-12-18T07:58:57;100467.03;;;-9.71;100.00
10921;BME280;5513;50.580;8.818;2022-12-18T08:01:27;100468.00;;;-9.67;100.00
10921;BME280;5513;50.580;8.818;2022-12-18T08:03:57;100472.78;;;-9.54;100.00
10921;BME280;5513;50.580;8.818;2022-12-18T08:06:26;100467.53;;;-9.57;100.00
10921;BME280;5513;50.580;8.818;2022-12-18T08:08:55;100464.91;;;-9.59;100.00
10921;BME280;5513;50.580;8.818;2022-12-18T08:11:27;100464.44;;;-9.48;100.00
10921;BME280;5513;50.580;8.818;2022-12-18T08:13:57;100458.78;;;-9.40;100.00
10921;BME280;5513;50.580;8.818;2022-12-18T08:16:28;100453.25;;;-9.50;100.00
10921;BME280;5513;50.580;8.818;2022-12-18T08:18:57;100454.31;;;-9.21;100.00
10921;BME280;5513;50.580;8.818;2022-12-18T08:21:28;100456.06;;;-8.97;100.00
10921;BME280;5513;50.580;8.818;2022-12-18T08:23:58;100447.28;;;-9.03;100.00
10921;BME280;5513;50.580;8.818;2022-12-18T08:26:29;100441.41;;;-8.99;100.00
10921;BME280;5513;50.580;8.818;2022-12-18T08:29:01;100431.69;;;-9.08;100.00
10921;BME280;5513;50.580;8.818;2022-12-18T08:31:30;100422.63;;;-8.98;100.00
10921;BME280;5513;50.580;8.818;2022-12-18T08:33:59;100419.94;;;-8.77;100.00
10921;BME280;5513;50.580;8.818;2022-12-18T08:36:29;100420.81;;;-8.50;100.00
10921;BME280;5513;50.580;8.818;2022-12-18T08:38:57;100412.72;;;-8.37;100.00
10921;BME280;5513;50.580;8.818;2022-12-18T08:41:26;100412.06;;;-8.29;100.00
10921;BME280;5513;50.580;8.818;2022-12-18T08:43:56;100412.44;;;-8.17;100.00
10921;BME280;5513;50.580;8.818;2022-12-18T08:46:43;100414.63;;;-8.01;100.00
10921;BME280;5513;50.580;8.818;2022-12-18T08:49:12;100416.53;;;-7.95;100.00
10921;BME280;5513;50.580;8.818;2022-12-18T08:51:41;100410.63;;;-7.91;100.00
10921;BME280;5513;50.580;8.818;2022-12-18T08:54:11;100412.78;;;-7.78;100.00
10921;BME280;5513;50.580;8.818;2022-12-18T08:56:40;100413.16;;;-7.64;100.00
10921;BME280;5513;50.580;8.818;2022-12-18T08:59:10;100419.03;;;-7.40;100.00
10921;BME280;5513;50.580;8.818;2022-12-18T09:01:48;100412.44;;;-7.30;100.00
10921;BME280;5513;50.580;8.818;2022-12-18T09:04:17;100414.03;;;-7.04;100.00
10921;BME280;5513;50.580;8.818;2022-12-18T09:06:47;100409.47;;;-6.81;100.00
10921;BME280;5513;50.580;8.818;2022-12-18T09:09:16;100400.69;;;-6.54;100.00
10921;BME280;5513;50.580;8.818;2022-12-18T09:11:47;100406.91;;;-6.46;100.00
10921;BME280;5513;50.580;8.818;2022-12-18T09:14:15;100399.53;;;-6.31;100.00
10921;BME280;5513;50.580;8.818;2022-12-18T09:16:44;100411.41;;;-6.00;100.00
10921;BME280;5513;50.580;8.818;2022-12-18T09:19:17;100418.91;;;-5.71;100.00
10921;BME280;5513;50.580;8.818;2022-12-18T09:21:46;100419.09;;;-5.62;100.00
10921;BME280;5513;50.580;8.818;2022-12-18T09:24:15;100423.94;;;-5.78;100.00
10921;BME280;5513;50.580;8.818;2022-12-18T09:26:45;100423.84;;;-5.81;100.00
10921;BME280;5513;50.580;8.818;2022-12-18T09:29:14;100416.53;;;-5.62;100.00
10921;BME280;5513;50.580;8.818;2022-12-18T09:31:44;100406.53;;;-5.47;100.00
10921;BME280;5513;50.580;8.818;2022-12-18T09:34:19;100421.72;;;-5.19;100.00
10921;BME280;5513;50.580;8.818;2022-12-18T09:36:50;100417.28;;;-4.82;100.00
10921;BME280;5513;50.580;8.818;2022-12-18T09:39:18;100423.66;;;-4.62;100.00
10921;BME280;5513;50.580;8.818;2022-12-18T09:41:51;100418.56;;;-4.55;100.00
10921;BME280;5513;50.580;8.818;2022-12-18T09:44:24;100418.09;;;-4.33;100.00
10921;BME280;5513;50.580;8.818;2022-12-18T09:47:02;100419.84;;;-4.32;100.00
10921;BME280;5513;50.580;8.818;2022-12-18T09:49:36;100415.81;;;-4.15;100.00
10921;BME280;5513;50.580;8.818;2022-12-18T09:52:11;100416.78;;;-4.07;100.00
10921;BME280;5513;50.580;8.818;2022-12-18T09:54:42;100421.50;;;-3.78;100.00
10921;BME280;5513;50.580;8.818;2022-12-18T09:57:18;100411.44;;;-3.58;100.00
10921;BME280;5513;50.580;8.818;2022-12-18T09:59:51;100416.00;;;-3.39;100.00
10921;BME280;5513;50.580;8.818;2022-12-18T10:02:23;100431.53;;;-3.40;100.00
10921;BME280;5513;50.580;8.818;2022-12-18T10:05:04;100422.81;;;-3.47;100.00
10921;BME280;5513;50.580;8.818;2022-12-18T10:07:48;100422.25;;;-3.23;100.00
10921;BME280;5513;50.580;8.818;2022-12-18T10:10:29;100418.78;;;-3.24;100.00
10921;BME280;5513;50.580;8.818;2022-12-18T10:13:06;100420.84;;;-2.95;100.00
10921;BME280;5513;50.580;8.818;2022-12-18T10:15:47;100424.31;;;-2.93;100.00
10921;BME280;5513;50.580;8.818;2022-12-18T10:18:29;100404.34;;;-3.03;100.00
10921;BME280;5513;50.580;8.818;2022-12-18T10:21:10;100402.63;;;-3.00;100.00
10921;BME280;5513;50.580;8.818;2022-12-18T10:23:46;100401.94;;;-2.85;100.00
10921;BME280;5513;50.580;8.818;2022-12-18T10:26:17;100389.97;;;-2.71;100.00
10921;BME280;5513;50.580;8.818;2022-12-18T10:28:47;100391.72;;;-2.70;100.00
10921;BME280;5513;50.580;8.818;2022-12-18T10:31:17;100382.25;;;-2.63;100.00
10921;BME280;5513;50.580;8.818;2022-12-18T10:33:50;100384.16;;;-2.42;100.00
10921;BME280;5513;50.580;8.818;2022-12-18T10:36:24;100377.41;;;-2.23;100.00
10921;BME280;5513;50.580;8.818;2022-12-18T10:39:14;100384.31;;;-2.24;100.00
10921;BME280;5513;50.580;8.818;2022-12-18T10:41:43;100388.00;;;-1.91;100.00
10921;BME280;5513;50.580;8.818;2022-12-18T10:44:16;100384.44;;;-2.04;100.00
10921;BME280;5513;50.580;8.818;2022-12-18T10:46:46;100384.44;;;-2.12;100.00
10921;BME280;5513;50.580;8.818;2022-12-18T10:49:26;100376.38;;;-2.42;100.00
10921;BME280;5513;50.580;8.818;2022-12-18T10:52:11;100378.38;;;-2.09;100.00
10921;BME280;5513;50.580;8.818;2022-12-18T10:54:47;100370.44;;;-2.29;100.00
10921;BME280;5513;50.580;8.818;2022-12-18T10:57:32;100376.44;;;-2.39;100.00
10921;BME280;5513;50.580;8.818;2022-12-18T11:00:22;100376.22;;;-2.62;100.00
10921;BME280;5513;50.580;8.818;2022-12-18T11:02:51;100378.03;;;-2.53;100.00
10921;BME280;5513;50.580;8.818;2022-12-18T11:05:29;100381.47;;;-2.54;100.00
10921;BME280;5513;50.580;8.818;2022-12-18T11:08:00;100389.56;;;-2.16;100.00
10921;BME280;5513;50.580;8.818;2022-12-18T11:10:32;100387.59;;;-2.45;100.00
10921;BME280;5513;50.580;8.818;2022-12-18T11:13:11;100379.97;;;-2.26;100.00
10921;BME280;5513;50.580;8.818;2022-12-18T11:15:41;100378.31;;;-2.15;100.00
10921;BME280;5513;50.580;8.818;2022-12-18T11:18:17;100370.72;;;-1.85;100.00
10921;BME280;5513;50.580;8.818;2022-12-18T11:20:51;100358.59;;;-1.90;100.00
10921;BME280;5513;50.580;8.818;2022-12-18T11:23:26;100350.00;;;-1.76;100.00
10921;BME280;5513;50.580;8.818;2022-12-18T11:25:58;100345.66;;;-1.77;100.00
10921;BME280;5513;50.580;8.818;2022-12-18T11:28:37;100327.56;;;-1.57;100.00
10921;BME280;5513;50.580;8.818;2022-12-18T11:31:25;100325.63;;;-2.04;100.00
10921;BME280;5513;50.580;8.818;2022-12-18T11:33:59;100328.31;;;-1.87;100.00
10921;BME280;5513;50.580;8.818;2022-12-18T11:36:50;100337.59;;;-2.24;100.00
10921;BME280;5513;50.580;8.818;2022-12-18T11:39:33;100327.16;;;-2.38;100.00
10921;BME280;5513;50.580;8.818;2022-12-18T11:42:10;100345.38;;;-2.32;100.00
10921;BME280;5513;50.580;8.818;2022-12-18T11:44:48;100341.03;;;-2.31;100.00
10921;BME280;5513;50.580;8.818;2022-12-18T11:47:25;100342.91;;;-2.10;100.00
10921;BME280;5513;50.580;8.818;2022-12-18T11:50:00;100349.03;;;-2.00;100.00
10921;BME280;5513;50.580;8.818;2022-12-18T11:52:34;100342.84;;;-2.15;100.00
10921;BME280;5513;50.580;8.818;2022-12-18T11:55:11;100355.03;;;-2.06;100.00
10921;BME280;5513;50.580;8.818;2022-12-18T11:57:47;100341.91;;;-2.27;100.00
10921;BME280;5513;50.580;8.818;2022-12-18T12:00:20;100340.03;;;-2.47;100.00
10921;BME280;5513;50.580;8.818;2022-12-18T12:03:11;100335.88;;;-2.23;100.00
10921;BME280;5513;50.580;8.818;2022-12-18T12:05:58;100336.59;;;-2.43;100.00
10921;BME280;5513;50.580;8.818;2022-12-18T12:08:39;100335.59;;;-2.62;100.00
10921;BME280;5513;50.580;8.818;2022-12-18T12:11:19;100334.63;;;-2.77;100.00
10921;BME280;5513;50.580;8.818;2022-12-18T12:14:01;100339.41;;;-3.17;100.00
10921;BME280;5513;50.580;8.818;2022-12-18T12:16:37;100335.22;;;-3.03;100.00
10921;BME280;5513;50.580;8.818;2022-12-18T12:19:24;100350.00;;;-2.97;100.00
10921;BME280;5513;50.580;8.818;2022-12-18T12:22:03;100357.66;;;-3.08;100.00
10921;BME280;5513;50.580;8.818;2022-12-18T12:24:42;100345.50;;;-3.13;100.00
10921;BME280;5513;50.580;8.818;2022-12-18T12:27:20;100342.31;;;-2.83;100.00
10921;BME280;5513;50.580;8.818;2022-12-18T12:30:02;100333.41;;;-3.14;100.00
10921;BME280;5513;50.580;8.818;2022-12-18T12:32:45;100332.63;;;-3.04;100.00
10921;BME280;5513;50.580;8.818;2022-12-18T12:35:28;100335.38;;;-2.88;100.00
10921;BME280;5513;50.580;8.818;2022-12-18T12:38:06;100344.06;;;-2.84;100.00
10921;BME280;5513;50.580;8.818;2022-12-18T12:40:39;100351.38;;;-3.28;100.00
10921;BME280;5513;50.580;8.818;2022-12-18T12:43:34;100344.19;;;-3.55;100.00
10921;BME280;5513;50.580;8.818;2022-12-18T12:46:13;100341.63;;;-3.51;100.00
10921;BME280;5513;50.580;8.818;2022-12-18T12:48:45;100339.03;;;-3.49;100.00
10921;BME280;5513;50.580;8.818;2022-12-18T12:51:17;100339.97;;;-3.47;100.00
10921;BME280;5513;50.580;8.818;2022-12-18T12:53:48;100319.19;;;-3.52;100.00
10921;BME280;5513;50.580;8.818;2022-12-18T12:56:19;100312.28;;;-3.50;100.00
10921;BME280;5513;50.580;8.818;2022-12-18T12:59:08;100310.44;;;-3.60;100.00
10921;BME280;5513;50.580;8.818;2022-12-18T13:01:41;100309.66;;;-3.56;100.00
10921;BME280;5513;50.580;8.818;2022-12-18T13:04:21;100311.53;;;-3.41;100.00
10921;BME280;5513;50.580;8.818;2022-12-18T13:06:58;100311.38;;;-3.55;100.00
10921;BME280;5513;50.580;8.818;2022-12-18T13:09:30;100326.78;;;-3.65;100.00
10921;BME280;5513;50.580;8.818;2022-12-18T13:12:03;100327.69;;;-3.62;100.00
10921;BME280;5513;50.580;8.818;2022-12-18T13:14:51;100344.03;;;-3.66;100.00
10921;BME280;5513;50.580;8.818;2022-12-18T13:17:30;100338.94;;;-3.58;100.00